sensor_id;sensor_type;location;lat;lon;timestamp;temperature;humidity
71733;DHT22;65965;43.502;3.716;2022-12-29T00:01:31;9.50;89.70
71733;DHT22;65965;43.502;3.716;2022-12-29T00:03:57;9.40;90.70
71733;DHT22;65965;43.502;3.716;2022-12-29T00:06:23;9.30;90.80
71733;DHT22;65965;43.502;3.716;2022-12-29T00:08:49;9.10;90.80
71733;DHT22;65965;43.502;3.716;2022-12-29T00:11:19;8.90;91.30
71733;DHT22;65965;43.502;3.716;2022-12-29T00:13:45;8.90;91.90
71733;DHT22;65965;43.502;3.716;2022-12-29T00:16:30;8.80;92.00
71733;DHT22;65965;43.502;3.716;2022-12-29T00:18:57;8.80;92.10
71733;DHT22;65965;43.502;3.716;2022-12-29T00:21:23;8.70;92.10
71733;DHT22;65965;43.502;3.716;2022-12-29T00:24:17;8.60;92.30
71733;DHT22;65965;43.502;3.716;2022-12-29T00:27:18;8.70;92.90
71733;DHT22;65965;43.502;3.716;2022-12-29T00:30:02;8.90;92.90
71733;DHT22;65965;43.502;3.716;2022-12-29T00:32:47;9.00;92.60
71733;DHT22;65965;43.502;3.716;2022-12-29T00:35:38;9.00;92.10
71733;DHT22;65965;43.502;3.716;2022-12-29T00:38:06;9.20;92.00
71733;DHT22;65965;43.502;3.716;2022-12-29T00:40:51;9.30;91.60
71733;DHT22;65965;43.502;3.716;2022-12-29T00:43:35;9.50;91.20
71733;DHT22;65965;43.502;3.716;2022-12-29T00:46:20;9.50;90.50
71733;DHT22;65965;43.502;3.716;2022-12-29T00:48:45;9.30;90.60
71733;DHT22;65965;43.502;3.716;2022-12-29T00:51:47;9.20;90.50
71733;DHT22;65965;43.502;3.716;2022-12-29T00:54:13;9.00;91.60
71733;DHT22;65965;43.502;3.716;2022-12-29T00:56:40;8.90;91.90
71733;DHT22;65965;43.502;3.716;2022-12-29T00:59:08;8.80;92.00
71733;DHT22;65965;43.502;3.716;2022-12-29T01:01:34;8.60;91.90
71733;DHT22;65965;43.502;3.716;2022-12-29T01:04:00;8.60;92.50
71733;DHT22;65965;43.502;3.716;2022-12-29T01:06:26;8.60;92.80
71733;DHT22;65965;43.502;3.716;2022-12-29T01:08:52;8.70;93.00
71733;DHT22;65965;43.502;3.716;2022-12-29T01:11:37;8.80;93.00
71733;DHT22;65965;43.502;3.716;2022-12-29T01:14:04;9.00;92.90
71733;DHT22;65965;43.502;3.716;2022-12-29T01:16:30;9.00;92.50
71733;DHT22;65965;43.502;3.716;2022-12-29T01:18:55;9.20;92.00
71733;DHT22;65965;43.502;3.716;2022-12-29T01:21:21;9.30;91.60
71733;DHT22;65965;43.502;3.716;2022-12-29T01:23:47;9.40;90.90
71733;DHT22;65965;43.502;3.716;2022-12-29T01:26:14;9.50;90.40
71733;DHT22;65965;43.502;3.716;2022-12-29T01:28:40;9.50;90.20
71733;DHT22;65965;43.502;3.716;2022-12-29T01:31:08;9.60;89.90
71733;DHT22;65965;43.502;3.716;2022-12-29T01:33:33;9.60;89.80
71733;DHT22;65965;43.502;3.716;2022-12-29T01:36:04;9.60;89.70
71733;DHT22;65965;43.502;3.716;2022-12-29T01:38:31;9.50;90.10
71733;DHT22;65965;43.502;3.716;2022-12-29T01:40:56;9.40;90.00
71733;DHT22;65965;43.502;3.716;2022-12-29T01:46:04;9.50;90.60
71733;DHT22;65965;43.502;3.716;2022-12-29T01:48:29;9.50;90.60
71733;DHT22;65965;43.502;3.716;2022-12-29T01:50:55;9.50;90.80
71733;DHT22;65965;43.502;3.716;2022-12-29T01:53:26;9.60;91.10
71733;DHT22;65965;43.502;3.716;2022-12-29T01:55:56;9.80;90.70
71733;DHT22;65965;43.502;3.716;2022-12-29T01:58:26;9.90;90.20
71733;DHT22;65965;43.502;3.716;2022-12-29T02:00:52;10.00;89.70
71733;DHT22;65965;43.502;3.716;2022-12-29T02:03:19;10.10;89.50
71733;DHT22;65965;43.502;3.716;2022-12-29T02:08:16;10.10;89.30
71733;DHT22;65965;43.502;3.716;2022-12-29T02:10:44;10.10;89.00
71733;DHT22;65965;43.502;3.716;2022-12-29T02:13:10;10.00;88.80
71733;DHT22;65965;43.502;3.716;2022-12-29T02:33:03;9.90;89.70
71733;DHT22;65965;43.502;3.716;2022-12-29T02:38:25;9.90;89.70
71733;DHT22;65965;43.502;3.716;2022-12-29T02:41:07;10.00;89.90
71733;DHT22;65965;43.502;3.716;2022-12-29T02:44:06;10.00;89.80
71733;DHT22;65965;43.502;3.716;2022-12-29T02:46:54;9.90;89.80
71733;DHT22;65965;43.502;3.716;2022-12-29T02:49:36;9.90;90.00
71733;DHT22;65965;43.502;3.716;2022-12-29T02:52:12;9.90;90.20
71733;DHT22;65965;43.502;3.716;2022-12-29T02:54:40;9.90;90.10
71733;DHT22;65965;43.502;3.716;2022-12-29T02:57:33;9.90;89.80
71733;DHT22;65965;43.502;3.716;2022-12-29T03:02:58;10.10;89.80
71733;DHT22;65965;43.502;3.716;2022-12-29T03:08:42;10.10;89.10
71733;DHT22;65965;43.502;3.716;2022-12-29T03:11:12;10.10;89.40
71733;DHT22;65965;43.502;3.716;2022-12-29T03:14:28;10.00;89.60
71733;DHT22;65965;43.502;3.716;2022-12-29T03:17:29;10.00;89.50
71733;DHT22;65965;43.502;3.716;2022-12-29T03:20:04;10.10;89.60
71733;DHT22;65965;43.502;3.716;2022-12-29T03:22:36;10.10;89.50
71733;DHT22;65965;43.502;3.716;2022-12-29T03:25:09;10.10;89.30
71733;DHT22;65965;43.502;3.716;2022-12-29T03:27:44;10.10;89.10
71733;DHT22;65965;43.502;3.716;2022-12-29T03:30:10;10.20;89.40
71733;DHT22;65965;43.502;3.716;2022-12-29T03:32:57;10.20;89.40
71733;DHT22;65965;43.502;3.716;2022-12-29T03:35:27;10.20;89.50
71733;DHT22;65965;43.502;3.716;2022-12-29T03:40:32;10.20;89.00
71733;DHT22;65965;43.502;3.716;2022-12-29T03:43:00;10.20;88.80
71733;DHT22;65965;43.502;3.716;2022-12-29T03:45:26;10.20;89.10
71733;DHT22;65965;43.502;3.716;2022-12-29T03:47:53;10.20;89.30
71733;DHT22;65965;43.502;3.716;2022-12-29T03:50:19;10.10;89.40
71733;DHT22;65965;43.502;3.716;2022-12-29T03:52:44;10.20;89.30
71733;DHT22;65965;43.502;3.716;2022-12-29T03:55:10;10.20;89.30
71733;DHT22;65965;43.502;3.716;2022-12-29T03:57:36;10.20;89.20
71733;DHT22;65965;43.502;3.716;2022-12-29T04:00:04;10.20;89.50
71733;DHT22;65965;43.502;3.716;2022-12-29T04:02:30;10.20;89.60
71733;DHT22;65965;43.502;3.716;2022-12-29T04:04:56;10.20;89.40
71733;DHT22;65965;43.502;3.716;2022-12-29T04:07:21;10.20;89.50
71733;DHT22;65965;43.502;3.716;2022-12-29T04:09:47;10.20;89.50
71733;DHT22;65965;43.502;3.716;2022-12-29T04:12:13;10.20;89.40
71733;DHT22;65965;43.502;3.716;2022-12-29T04:14:40;10.20;89.10
71733;DHT22;65965;43.502;3.716;2022-12-29T04:17:06;10.30;89.00
71733;DHT22;65965;43.502;3.716;2022-12-29T04:19:31;10.30;89.10
71733;DHT22;65965;43.502;3.716;2022-12-29T04:21:57;10.30;89.00
71733;DHT22;65965;43.502;3.716;2022-12-29T04:24:23;10.30;88.80
71733;DHT22;65965;43.502;3.716;2022-12-29T04:26:49;10.30;88.70
71733;DHT22;65965;43.502;3.716;2022-12-29T04:29:15;10.40;88.80
71733;DHT22;65965;43.502;3.716;2022-12-29T04:31:40;10.40;88.60
71733;DHT22;65965;43.502;3.716;2022-12-29T04:34:06;10.40;88.50
71733;DHT22;65965;43.502;3.716;2022-12-29T04:36:32;10.30;88.30
71733;DHT22;65965;43.502;3.716;2022-12-29T04:38:58;10.30;88.60
71733;DHT22;65965;43.502;3.716;2022-12-29T04:41:24;10.30;89.00
71733;DHT22;65965;43.502;3.716;2022-12-29T04:43:49;10.30;89.20
71733;DHT22;65965;43.502;3.716;2022-12-29T04:46:15;10.20;89.40
71733;DHT22;65965;43.502;3.716;2022-12-29T04:48:41;10.20;89.50
71733;DHT22;65965;43.502;3.716;2022-12-29T04:51:07;10.10;89.80
71733;DHT22;65965;43.502;3.716;2022-12-29T04:53:33;10.10;89.70
71733;DHT22;65965;43.502;3.716;2022-12-29T04:55:58;10.00;89.60
71733;DHT22;65965;43.502;3.716;2022-12-29T04:58:24;10.00;90.00
71733;DHT22;65965;43.502;3.716;2022-12-29T05:00:50;10.00;90.30
71733;DHT22;65965;43.502;3.716;2022-12-29T05:03:16;10.00;90.30
71733;DHT22;65965;43.502;3.716;2022-12-29T05:05:42;10.10;90.40
71733;DHT22;65965;43.502;3.716;2022-12-29T05:08:08;10.10;90.10
71733;DHT22;65965;43.502;3.716;2022-12-29T05:10:34;10.20;89.90
71733;DHT22;65965;43.502;3.716;2022-12-29T05:13:00;10.20;89.80
71733;DHT22;65965;43.502;3.716;2022-12-29T05:15:26;10.30;89.60
71733;DHT22;65965;43.502;3.716;2022-12-29T05:17:52;10.30;89.50
71733;DHT22;65965;43.502;3.716;2022-12-29T05:20:17;10.30;89.40
71733;DHT22;65965;43.502;3.716;2022-12-29T05:22:43;10.30;89.30
71733;DHT22;65965;43.502;3.716;2022-12-29T05:25:09;10.30;89.30
71733;DHT22;65965;43.502;3.716;2022-12-29T05:27:35;10.30;89.30
71733;DHT22;65965;43.502;3.716;2022-12-29T05:30:01;10.30;89.00
71733;DHT22;65965;43.502;3.716;2022-12-29T05:32:27;10.40;88.90
71733;DHT22;65965;43.502;3.716;2022-12-29T05:34:52;10.40;88.90
71733;DHT22;65965;43.502;3.716;2022-12-29T05:37:18;10.40;89.10
71733;DHT22;65965;43.502;3.716;2022-12-29T05:39:44;10.40;89.40
71733;DHT22;65965;43.502;3.716;2022-12-29T05:42:09;10.40;89.90
71733;DHT22;65965;43.502;3.716;2022-12-29T05:44:35;10.30;89.80
71733;DHT22;65965;43.502;3.716;2022-12-29T05:47:01;10.30;89.90
71733;DHT22;65965;43.502;3.716;2022-12-29T05:49:27;10.30;89.60
71733;DHT22;65965;43.502;3.716;2022-12-29T05:51:52;10.40;89.20
71733;DHT22;65965;43.502;3.716;2022-12-29T05:54:18;10.40;89.50
71733;DHT22;65965;43.502;3.716;2022-12-29T05:56:44;10.40;89.50
71733;DHT22;65965;43.502;3.716;2022-12-29T05:59:09;10.40;89.30
71733;DHT22;65965;43.502;3.716;2022-12-29T06:01:35;10.40;89.00
71733;DHT22;65965;43.502;3.716;2022-12-29T06:04:01;10.50;88.90
71733;DHT22;65965;43.502;3.716;2022-12-29T06:06:26;10.50;88.60
71733;DHT22;65965;43.502;3.716;2022-12-29T06:08:52;10.50;88.70
71733;DHT22;65965;43.502;3.716;2022-12-29T06:11:18;10.50;88.40
71733;DHT22;65965;43.502;3.716;2022-12-29T06:13:44;10.50;88.70
71733;DHT22;65965;43.502;3.716;2022-12-29T06:16:10;10.50;89.30
71733;DHT22;65965;43.502;3.716;2022-12-29T06:18:35;10.50;89.20
71733;DHT22;65965;43.502;3.716;2022-12-29T06:21:02;10.40;89.30
71733;DHT22;65965;43.502;3.716;2022-12-29T06:23:28;10.40;89.20
71733;DHT22;65965;43.502;3.716;2022-12-29T06:25:54;10.40;89.30
71733;DHT22;65965;43.502;3.716;2022-12-29T06:28:20;10.40;89.20
71733;DHT22;65965;43.502;3.716;2022-12-29T06:30:46;10.40;89.00
71733;DHT22;65965;43.502;3.716;2022-12-29T06:33:12;10.50;88.70
71733;DHT22;65965;43.502;3.716;2022-12-29T06:35:38;10.50;88.40
71733;DHT22;65965;43.502;3.716;2022-12-29T06:38:03;10.50;88.60
71733;DHT22;65965;43.502;3.716;2022-12-29T06:40:29;10.40;89.00
71733;DHT22;65965;43.502;3.716;2022-12-29T06:42:55;10.40;89.40
71733;DHT22;65965;43.502;3.716;2022-12-29T06:45:21;10.40;89.20
71733;DHT22;65965;43.502;3.716;2022-12-29T06:47:46;10.30;89.60
71733;DHT22;65965;43.502;3.716;2022-12-29T06:50:12;10.30;89.70
71733;DHT22;65965;43.502;3.716;2022-12-29T06:52:38;10.20;89.90
71733;DHT22;65965;43.502;3.716;2022-12-29T06:55:04;10.20;89.90
71733;DHT22;65965;43.502;3.716;2022-12-29T06:57:30;10.20;90.10
71733;DHT22;65965;43.502;3.716;2022-12-29T06:59:55;10.20;90.10
71733;DHT22;65965;43.502;3.716;2022-12-29T07:02:22;10.20;89.80
71733;DHT22;65965;43.502;3.716;2022-12-29T07:04:47;10.30;89.70
71733;DHT22;65965;43.502;3.716;2022-12-29T07:07:13;10.30;89.80
71733;DHT22;65965;43.502;3.716;2022-12-29T07:09:39;10.40;89.80
71733;DHT22;65965;43.502;3.716;2022-12-29T07:12:05;10.40;89.70
71733;DHT22;65965;43.502;3.716;2022-12-29T07:14:31;10.40;89.70
71733;DHT22;65965;43.502;3.716;2022-12-29T07:16:57;10.40;89.70
71733;DHT22;65965;43.502;3.716;2022-12-29T07:19:23;10.50;89.80
71733;DHT22;65965;43.502;3.716;2022-12-29T07:21:48;10.50;89.70
71733;DHT22;65965;43.502;3.716;2022-12-29T07:24:14;10.50;89.50
71733;DHT22;65965;43.502;3.716;2022-12-29T07:26:39;10.50;89.50
71733;DHT22;65965;43.502;3.716;2022-12-29T07:29:06;10.40;89.20
71733;DHT22;65965;43.502;3.716;2022-12-29T07:31:32;10.50;89.20
71733;DHT22;65965;43.502;3.716;2022-12-29T07:33:58;10.40;89.20
71733;DHT22;65965;43.502;3.716;2022-12-29T07:36:23;10.40;89.50
71733;DHT22;65965;43.502;3.716;2022-12-29T07:38:49;10.30;89.40
71733;DHT22;65965;43.502;3.716;2022-12-29T07:41:15;10.30;89.60
71733;DHT22;65965;43.502;3.716;2022-12-29T07:43:40;10.30;89.70
71733;DHT22;65965;43.502;3.716;2022-12-29T07:46:06;10.30;89.70
71733;DHT22;65965;43.502;3.716;2022-12-29T07:48:34;10.30;89.80
71733;DHT22;65965;43.502;3.716;2022-12-29T07:51:01;10.40;89.70
71733;DHT22;65965;43.502;3.716;2022-12-29T07:53:26;10.40;89.60
71733;DHT22;65965;43.502;3.716;2022-12-29T07:55:52;10.40;89.70
71733;DHT22;65965;43.502;3.716;2022-12-29T07:58:18;10.40;89.70
71733;DHT22;65965;43.502;3.716;2022-12-29T08:00:44;10.40;89.70
71733;DHT22;65965;43.502;3.716;2022-12-29T08:03:10;10.40;89.50
71733;DHT22;65965;43.502;3.716;2022-12-29T08:05:35;10.40;89.60
71733;DHT22;65965;43.502;3.716;2022-12-29T08:08:01;10.40;89.60
71733;DHT22;65965;43.502;3.716;2022-12-29T08:10:27;10.50;89.70
71733;DHT22;65965;43.502;3.716;2022-12-29T08:12:53;10.50;89.60
71733;DHT22;65965;43.502;3.716;2022-12-29T08:15:18;10.60;89.40
71733;DHT22;65965;43.502;3.716;2022-12-29T08:17:44;10.60;89.50
71733;DHT22;65965;43.502;3.716;2022-12-29T08:20:10;10.60;89.30
71733;DHT22;65965;43.502;3.716;2022-12-29T08:22:36;10.70;89.20
71733;DHT22;65965;43.502;3.716;2022-12-29T08:25:02;10.70;89.10
71733;DHT22;65965;43.502;3.716;2022-12-29T08:27:28;10.80;88.80
71733;DHT22;65965;43.502;3.716;2022-12-29T08:29:53;10.80;88.60
71733;DHT22;65965;43.502;3.716;2022-12-29T08:32:19;10.90;88.40
71733;DHT22;65965;43.502;3.716;2022-12-29T08:34:45;10.90;88.50
71733;DHT22;65965;43.502;3.716;2022-12-29T08:37:11;11.00;88.30
71733;DHT22;65965;43.502;3.716;2022-12-29T08:39:37;11.00;88.10
71733;DHT22;65965;43.502;3.716;2022-12-29T08:42:02;11.10;87.90
71733;DHT22;65965;43.502;3.716;2022-12-29T08:44:28;11.20;87.70
71733;DHT22;65965;43.502;3.716;2022-12-29T08:46:54;11.20;87.50
71733;DHT22;65965;43.502;3.716;2022-12-29T08:49:19;11.30;87.40
71733;DHT22;65965;43.502;3.716;2022-12-29T08:51:45;11.50;87.00
71733;DHT22;65965;43.502;3.716;2022-12-29T08:54:11;11.60;86.40
71733;DHT22;65965;43.502;3.716;2022-12-29T08:56:36;11.80;86.00
71733;DHT22;65965;43.502;3.716;2022-12-29T08:59:02;12.00;84.90
71733;DHT22;65965;43.502;3.716;2022-12-29T09:01:28;12.20;84.40
71733;DHT22;65965;43.502;3.716;2022-12-29T09:03:54;12.40;83.80
71733;DHT22;65965;43.502;3.716;2022-12-29T09:06:20;12.60;82.80
71733;DHT22;65965;43.502;3.716;2022-12-29T09:08:46;12.80;82.30
71733;DHT22;65965;43.502;3.716;2022-12-29T09:11:18;12.90;81.20
71733;DHT22;65965;43.502;3.716;2022-12-29T09:13:44;12.80;81.30
71733;DHT22;65965;43.502;3.716;2022-12-29T09:16:11;12.90;80.80
71733;DHT22;65965;43.502;3.716;2022-12-29T09:18:37;12.90;80.90
71733;DHT22;65965;43.502;3.716;2022-12-29T09:21:05;13.00;81.20
71733;DHT22;65965;43.502;3.716;2022-12-29T09:23:32;13.20;80.50
71733;DHT22;65965;43.502;3.716;2022-12-29T09:25:58;13.70;78.40
71733;DHT22;65965;43.502;3.716;2022-12-29T09:28:24;13.50;78.30
71733;DHT22;65965;43.502;3.716;2022-12-29T09:30:51;13.40;78.80
71733;DHT22;65965;43.502;3.716;2022-12-29T09:33:17;13.30;79.00
71733;DHT22;65965;43.502;3.716;2022-12-29T09:35:44;13.40;78.80
71733;DHT22;65965;43.502;3.716;2022-12-29T09:38:10;13.30;78.50
71733;DHT22;65965;43.502;3.716;2022-12-29T09:40:36;13.10;79.00
71733;DHT22;65965;43.502;3.716;2022-12-29T09:43:27;13.10;79.30
71733;DHT22;65965;43.502;3.716;2022-12-29T09:46:26;13.20;79.20
71733;DHT22;65965;43.502;3.716;2022-12-29T09:51:43;15.30;72.90
71733;DHT22;65965;43.502;3.716;2022-12-29T09:56:54;16.50;67.80
71733;DHT22;65965;43.502;3.716;2022-12-29T09:59:26;15.80;70.40
71733;DHT22;65965;43.502;3.716;2022-12-29T10:02:08;15.80;70.70
71733;DHT22;65965;43.502;3.716;2022-12-29T10:04:38;16.00;70.40
71733;DHT22;65965;43.502;3.716;2022-12-29T10:07:38;16.10;70.90
71733;DHT22;65965;43.502;3.716;2022-12-29T10:12:36;16.00;69.30
71733;DHT22;65965;43.502;3.716;2022-12-29T10:23:11;18.00;66.30
71733;DHT22;65965;43.502;3.716;2022-12-29T10:25:41;18.30;62.90
71733;DHT22;65965;43.502;3.716;2022-12-29T10:30:55;18.40;63.20
71733;DHT22;65965;43.502;3.716;2022-12-29T10:33:30;17.80;63.20
71733;DHT22;65965;43.502;3.716;2022-12-29T10:35:58;16.50;66.70
71733;DHT22;65965;43.502;3.716;2022-12-29T10:38:36;15.80;68.70
71733;DHT22;65965;43.502;3.716;2022-12-29T10:41:13;14.90;71.40
71733;DHT22;65965;43.502;3.716;2022-12-29T10:43:48;15.00;71.60
71733;DHT22;65965;43.502;3.716;2022-12-29T10:46:21;14.80;72.90
71733;DHT22;65965;43.502;3.716;2022-12-29T10:48:48;14.50;73.90
71733;DHT22;65965;43.502;3.716;2022-12-29T10:51:26;14.70;73.20
71733;DHT22;65965;43.502;3.716;2022-12-29T10:54:17;14.90;73.30
71733;DHT22;65965;43.502;3.716;2022-12-29T10:56:47;14.90;73.60
71733;DHT22;65965;43.502;3.716;2022-12-29T10:59:26;15.20;72.10
71733;DHT22;65965;43.502;3.716;2022-12-29T11:02:02;15.50;72.00
71733;DHT22;65965;43.502;3.716;2022-12-29T11:04:45;15.80;71.20
71733;DHT22;65965;43.502;3.716;2022-12-29T11:07:16;16.00;70.70
71733;DHT22;65965;43.502;3.716;2022-12-29T11:09:45;16.60;68.00
71733;DHT22;65965;43.502;3.716;2022-12-29T11:12:27;16.90;67.50
71733;DHT22;65965;43.502;3.716;2022-12-29T11:17:56;17.90;66.20
71733;DHT22;65965;43.502;3.716;2022-12-29T11:20:41;19.30;61.70
71733;DHT22;65965;43.502;3.716;2022-12-29T11:23:24;22.00;57.80
71733;DHT22;65965;43.502;3.716;2022-12-29T11:26:25;21.00;55.50
71733;DHT22;65965;43.502;3.716;2022-12-29T11:31:51;19.60;58.20
71733;DHT22;65965;43.502;3.716;2022-12-29T11:34:32;19.00;60.60
71733;DHT22;65965;43.502;3.716;2022-12-29T11:37:09;18.60;63.50
71733;DHT22;65965;43.502;3.716;2022-12-29T11:39:57;19.10;61.50
71733;DHT22;65965;43.502;3.716;2022-12-29T11:42:36;18.20;63.00
71733;DHT22;65965;43.502;3.716;2022-12-29T11:45:14;18.30;63.90
71733;DHT22;65965;43.502;3.716;2022-12-29T11:47:44;18.90;62.20
71733;DHT22;65965;43.502;3.716;2022-12-29T11:50:24;19.70;60.30
71733;DHT22;65965;43.502;3.716;2022-12-29T11:53:13;19.60;59.10
71733;DHT22;65965;43.502;3.716;2022-12-29T11:55:40;19.10;60.30
71733;DHT22;65965;43.502;3.716;2022-12-29T11:58:16;19.10;60.50
71733;DHT22;65965;43.502;3.716;2022-12-29T12:00:42;17.90;63.60
71733;DHT22;65965;43.502;3.716;2022-12-29T12:03:24;17.10;66.40
71733;DHT22;65965;43.502;3.716;2022-12-29T12:05:56;16.90;67.50
71733;DHT22;65965;43.502;3.716;2022-12-29T12:11:26;16.20;69.30
71733;DHT22;65965;43.502;3.716;2022-12-29T12:16:55;15.80;70.40
71733;DHT22;65965;43.502;3.716;2022-12-29T12:19:36;15.60;71.40
71733;DHT22;65965;43.502;3.716;2022-12-29T12:22:15;15.60;72.30
71733;DHT22;65965;43.502;3.716;2022-12-29T12:24:54;15.80;71.80
71733;DHT22;65965;43.502;3.716;2022-12-29T12:27:36;15.70;71.70
71733;DHT22;65965;43.502;3.716;2022-12-29T12:30:19;15.50;72.10
71733;DHT22;65965;43.502;3.716;2022-12-29T12:32:58;15.50;72.30
71733;DHT22;65965;43.502;3.716;2022-12-29T12:38:58;15.50;72.90
71733;DHT22;65965;43.502;3.716;2022-12-29T12:44:41;15.70;72.00
71733;DHT22;65965;43.502;3.716;2022-12-29T12:53:01;15.60;72.30
71733;DHT22;65965;43.502;3.716;2022-12-29T13:06:29;19.80;59.60
71733;DHT22;65965;43.502;3.716;2022-12-29T13:11:56;20.00;59.80
71733;DHT22;65965;43.502;3.716;2022-12-29T13:17:33;18.70;62.30
71733;DHT22;65965;43.502;3.716;2022-12-29T13:20:16;17.10;66.00
71733;DHT22;65965;43.502;3.716;2022-12-29T13:22:46;16.90;68.60
71733;DHT22;65965;43.502;3.716;2022-12-29T13:36:04;15.80;71.60
71733;DHT22;65965;43.502;3.716;2022-12-29T13:41:35;15.50;72.70
71733;DHT22;65965;43.502;3.716;2022-12-29T13:44:04;15.40;73.40
71733;DHT22;65965;43.502;3.716;2022-12-29T13:46:39;15.10;74.20
71733;DHT22;65965;43.502;3.716;2022-12-29T13:49:17;15.00;75.00
71733;DHT22;65965;43.502;3.716;2022-12-29T13:52:04;14.80;75.00
71733;DHT22;65965;43.502;3.716;2022-12-29T13:54:57;14.90;75.60
71733;DHT22;65965;43.502;3.716;2022-12-29T14:00:21;15.20;74.00
71733;DHT22;65965;43.502;3.716;2022-12-29T14:02:56;15.60;73.60
71733;DHT22;65965;43.502;3.716;2022-12-29T14:05:29;15.60;72.90
71733;DHT22;65965;43.502;3.716;2022-12-29T14:08:04;15.70;72.80
71733;DHT22;65965;43.502;3.716;2022-12-29T14:10:34;15.80;72.40
71733;DHT22;65965;43.502;3.716;2022-12-29T14:13:16;15.60;72.50
71733;DHT22;65965;43.502;3.716;2022-12-29T14:15:44;15.20;73.60
71733;DHT22;65965;43.502;3.716;2022-12-29T14:18:17;15.00;74.50
71733;DHT22;65965;43.502;3.716;2022-12-29T14:23:42;14.90;74.30
71733;DHT22;65965;43.502;3.716;2022-12-29T14:26:14;14.80;74.80
71733;DHT22;65965;43.502;3.716;2022-12-29T14:28:47;14.70;74.80
71733;DHT22;65965;43.502;3.716;2022-12-29T14:33:40;14.60;74.90
71733;DHT22;65965;43.502;3.716;2022-12-29T14:36:33;14.60;74.70
71733;DHT22;65965;43.502;3.716;2022-12-29T14:38:59;14.70;73.60
71733;DHT22;65965;43.502;3.716;2022-12-29T14:44:17;15.10;73.40
71733;DHT22;65965;43.502;3.716;2022-12-29T14:46:55;15.10;73.10
71733;DHT22;65965;43.502;3.716;2022-12-29T14:49:24;15.10;73.10
71733;DHT22;65965;43.502;3.716;2022-12-29T14:52:03;15.00;73.00
71733;DHT22;65965;43.502;3.716;2022-12-29T14:54:43;14.90;73.40
71733;DHT22;65965;43.502;3.716;2022-12-29T14:57:28;14.60;73.90
71733;DHT22;65965;43.502;3.716;2022-12-29T15:00:06;14.50;74.70
71733;DHT22;65965;43.502;3.716;2022-12-29T15:02:36;14.40;74.90
71733;DHT22;65965;43.502;3.716;2022-12-29T15:05:05;14.20;75.50
71733;DHT22;65965;43.502;3.716;2022-12-29T15:07:32;14.00;76.30
71733;DHT22;65965;43.502;3.716;2022-12-29T15:10:13;13.90;77.20
71733;DHT22;65965;43.502;3.716;2022-12-29T15:12:49;13.70;77.70
71733;DHT22;65965;43.502;3.716;2022-12-29T15:15:26;13.50;78.30
71733;DHT22;65965;43.502;3.716;2022-12-29T15:17:52;13.40;78.60
71733;DHT22;65965;43.502;3.716;2022-12-29T15:22:55;13.20;80.10
71733;DHT22;65965;43.502;3.716;2022-12-29T15:25:21;13.00;80.90
71733;DHT22;65965;43.502;3.716;2022-12-29T15:28:00;12.90;81.00
71733;DHT22;65965;43.502;3.716;2022-12-29T15:30:26;12.80;81.50
71733;DHT22;65965;43.502;3.716;2022-12-29T15:32:51;12.70;81.90
71733;DHT22;65965;43.502;3.716;2022-12-29T15:35:44;12.60;82.70
71733;DHT22;65965;43.502;3.716;2022-12-29T15:38:19;12.40;83.20
71733;DHT22;65965;43.502;3.716;2022-12-29T15:40:46;12.30;83.90
71733;DHT22;65965;43.502;3.716;2022-12-29T15:46:05;12.20;84.00
71733;DHT22;65965;43.502;3.716;2022-12-29T15:48:31;12.20;83.90
71733;DHT22;65965;43.502;3.716;2022-12-29T15:50:58;12.10;84.60
71733;DHT22;65965;43.502;3.716;2022-12-29T15:53:30;11.90;84.90
71733;DHT22;65965;43.502;3.716;2022-12-29T15:56:00;11.80;85.40
71733;DHT22;65965;43.502;3.716;2022-12-29T15:58:29;11.70;85.60
71733;DHT22;65965;43.502;3.716;2022-12-29T16:00:57;11.60;86.30
71733;DHT22;65965;43.502;3.716;2022-12-29T16:03:29;11.50;86.50
71733;DHT22;65965;43.502;3.716;2022-12-29T16:06:10;11.30;86.00
71733;DHT22;65965;43.502;3.716;2022-12-29T16:08:56;11.30;86.20
71733;DHT22;65965;43.502;3.716;2022-12-29T16:11:26;11.20;86.90
71733;DHT22;65965;43.502;3.716;2022-12-29T16:13:53;11.10;87.60
71733;DHT22;65965;43.502;3.716;2022-12-29T16:16:31;11.00;87.50
71733;DHT22;65965;43.502;3.716;2022-12-29T16:19:08;11.00;87.80
71733;DHT22;65965;43.502;3.716;2022-12-29T16:21:36;11.10;88.60
71733;DHT22;65965;43.502;3.716;2022-12-29T16:24:23;11.20;88.00
71733;DHT22;65965;43.502;3.716;2022-12-29T16:29:19;11.40;86.40
71733;DHT22;65965;43.502;3.716;2022-12-29T16:31:57;11.50;86.40
71733;DHT22;65965;43.502;3.716;2022-12-29T16:34:42;11.60;85.70
71733;DHT22;65965;43.502;3.716;2022-12-29T16:39:53;11.70;85.40
71733;DHT22;65965;43.502;3.716;2022-12-29T16:50:31;11.70;85.80
71733;DHT22;65965;43.502;3.716;2022-12-29T16:52:58;11.60;86.40
71733;DHT22;65965;43.502;3.716;2022-12-29T16:55:24;11.60;86.60
71733;DHT22;65965;43.502;3.716;2022-12-29T16:57:51;11.50;87.20
71733;DHT22;65965;43.502;3.716;2022-12-29T17:00:22;11.40;87.50
71733;DHT22;65965;43.502;3.716;2022-12-29T17:02:53;11.30;87.80
71733;DHT22;65965;43.502;3.716;2022-12-29T17:05:20;11.20;88.20
71733;DHT22;65965;43.502;3.716;2022-12-29T17:07:46;11.10;88.20
71733;DHT22;65965;43.502;3.716;2022-12-29T17:10:12;11.10;88.40
71733;DHT22;65965;43.502;3.716;2022-12-29T17:12:43;11.10;88.10
71733;DHT22;65965;43.502;3.716;2022-12-29T17:15:25;11.20;88.40
71733;DHT22;65965;43.502;3.716;2022-12-29T17:17:53;11.20;88.20
71733;DHT22;65965;43.502;3.716;2022-12-29T17:20:21;11.20;87.90
71733;DHT22;65965;43.502;3.716;2022-12-29T17:22:47;11.10;87.80
71733;DHT22;65965;43.502;3.716;2022-12-29T17:27:55;11.00;88.40
71733;DHT22;65965;43.502;3.716;2022-12-29T17:30:24;10.90;88.90
71733;DHT22;65965;43.502;3.716;2022-12-29T17:32:58;10.90;89.50
71733;DHT22;65965;43.502;3.716;2022-12-29T17:35:25;10.90;89.10
71733;DHT22;65965;43.502;3.716;2022-12-29T17:37:51;10.90;89.10
71733;DHT22;65965;43.502;3.716;2022-12-29T17:40:23;11.00;89.90
71733;DHT22;65965;43.502;3.716;2022-12-29T17:42:52;11.00;89.90
71733;DHT22;65965;43.502;3.716;2022-12-29T17:45:29;11.00;89.40
71733;DHT22;65965;43.502;3.716;2022-12-29T17:47:56;10.90;89.60
71733;DHT22;65965;43.502;3.716;2022-12-29T17:50:27;10.70;89.60
71733;DHT22;65965;43.502;3.716;2022-12-29T17:53:02;10.60;89.90
71733;DHT22;65965;43.502;3.716;2022-12-29T17:55:29;10.40;90.20
71733;DHT22;65965;43.502;3.716;2022-12-29T17:57:55;10.40;90.90
71733;DHT22;65965;43.502;3.716;2022-12-29T18:00:26;10.20;90.40
71733;DHT22;65965;43.502;3.716;2022-12-29T18:02:53;10.20;90.60
71733;DHT22;65965;43.502;3.716;2022-12-29T18:05:26;10.20;90.30
71733;DHT22;65965;43.502;3.716;2022-12-29T18:07:54;10.20;91.00
71733;DHT22;65965;43.502;3.716;2022-12-29T18:10:22;10.20;91.20
71733;DHT22;65965;43.502;3.716;2022-12-29T18:12:49;10.10;90.80
71733;DHT22;65965;43.502;3.716;2022-12-29T18:15:26;10.10;90.90